sensor_id;sensor_type;location;lat;lon;timestamp;temperature;humidity
58865;DHT22;45702;52.982;6.658;2023-05-10T00:01:23;13.30;99.90
58865;DHT22;45702;52.982;6.658;2023-05-10T00:03:49;13.30;99.90
58865;DHT22;45702;52.982;6.658;2023-05-10T00:06:15;13.20;99.90
58865;DHT22;45702;52.982;6.658;2023-05-10T00:08:41;13.20;99.90
58865;DHT22;45702;52.982;6.658;2023-05-10T00:11:06;13.20;99.90
58865;DHT22;45702;52.982;6.658;2023-05-10T00:13:32;13.20;99.90
58865;DHT22;45702;52.982;6.658;2023-05-10T00:15:58;13.20;99.90
58865;DHT22;45702;52.982;6.658;2023-05-10T00:18:24;13.30;99.90
58865;DHT22;45702;52.982;6.658;2023-05-10T00:20:49;13.30;99.90
58865;DHT22;45702;52.982;6.658;2023-05-10T00:23:15;13.30;99.90
58865;DHT22;45702;52.982;6.658;2023-05-10T00:25:41;13.30;99.90
58865;DHT22;45702;52.982;6.658;2023-05-10T00:28:07;13.30;99.90
58865;DHT22;45702;52.982;6.658;2023-05-10T00:30:32;13.20;99.90
58865;DHT22;45702;52.982;6.658;2023-05-10T00:32:58;13.20;99.90
58865;DHT22;45702;52.982;6.658;2023-05-10T00:35:24;13.20;99.90
58865;DHT22;45702;52.982;6.658;2023-05-10T00:37:50;13.20;99.90
58865;DHT22;45702;52.982;6.658;2023-05-10T00:40:15;13.20;99.90
58865;DHT22;45702;52.982;6.658;2023-05-10T00:42:41;13.20;99.90
58865;DHT22;45702;52.982;6.658;2023-05-10T00:45:07;13.20;99.90
58865;DHT22;45702;52.982;6.658;2023-05-10T00:47:34;13.20;99.90
58865;DHT22;45702;52.982;6.658;2023-05-10T00:50:00;13.20;99.90
58865;DHT22;45702;52.982;6.658;2023-05-10T00:52:29;13.30;99.90
58865;DHT22;45702;52.982;6.658;2023-05-10T00:54:56;13.20;99.90
58865;DHT22;45702;52.982;6.658;2023-05-10T00:57:22;13.30;99.90
58865;DHT22;45702;52.982;6.658;2023-05-10T00:59:48;13.30;99.90
58865;DHT22;45702;52.982;6.658;2023-05-10T01:02:14;13.20;99.90
58865;DHT22;45702;52.982;6.658;2023-05-10T01:04:40;13.20;99.90
58865;DHT22;45702;52.982;6.658;2023-05-10T01:07:06;13.30;99.90
58865;DHT22;45702;52.982;6.658;2023-05-10T01:09:32;13.30;99.90
58865;DHT22;45702;52.982;6.658;2023-05-10T01:11:58;13.30;99.90
58865;DHT22;45702;52.982;6.658;2023-05-10T01:14:25;13.20;99.90
58865;DHT22;45702;52.982;6.658;2023-05-10T01:16:52;13.30;99.90
58865;DHT22;45702;52.982;6.658;2023-05-10T01:22:11;13.20;99.90
58865;DHT22;45702;52.982;6.658;2023-05-10T01:33:40;13.30;99.90
58865;DHT22;45702;52.982;6.658;2023-05-10T01:36:22;13.20;99.90
58865;DHT22;45702;52.982;6.658;2023-05-10T01:39:04;13.20;99.90
58865;DHT22;45702;52.982;6.658;2023-05-10T01:50:22;13.20;99.90
58865;DHT22;45702;52.982;6.658;2023-05-10T01:52:51;13.10;99.90
58865;DHT22;45702;52.982;6.658;2023-05-10T01:55:21;13.10;99.90
58865;DHT22;45702;52.982;6.658;2023-05-10T01:57:52;13.10;99.90
58865;DHT22;45702;52.982;6.658;2023-05-10T02:00:21;13.10;99.90
58865;DHT22;45702;52.982;6.658;2023-05-10T02:02:49;13.10;99.90
58865;DHT22;45702;52.982;6.658;2023-05-10T02:05:17;13.00;99.90
58865;DHT22;45702;52.982;6.658;2023-05-10T02:07:43;13.00;99.90
58865;DHT22;45702;52.982;6.658;2023-05-10T02:10:10;13.00;99.90
58865;DHT22;45702;52.982;6.658;2023-05-10T02:12:40;13.00;99.90
58865;DHT22;45702;52.982;6.658;2023-05-10T02:15:07;13.00;99.90
58865;DHT22;45702;52.982;6.658;2023-05-10T02:17:34;13.00;99.90
58865;DHT22;45702;52.982;6.658;2023-05-10T02:20:03;13.00;99.90
58865;DHT22;45702;52.982;6.658;2023-05-10T02:22:49;13.00;99.90
58865;DHT22;45702;52.982;6.658;2023-05-10T02:25:18;13.00;99.90
58865;DHT22;45702;52.982;6.658;2023-05-10T02:27:44;13.00;99.90
58865;DHT22;45702;52.982;6.658;2023-05-10T02:30:10;13.00;99.90
58865;DHT22;45702;52.982;6.658;2023-05-10T02:32:37;12.90;99.90
58865;DHT22;45702;52.982;6.658;2023-05-10T02:35:03;12.90;99.90
58865;DHT22;45702;52.982;6.658;2023-05-10T02:37:30;13.00;99.90
58865;DHT22;45702;52.982;6.658;2023-05-10T02:39:56;13.00;99.90
58865;DHT22;45702;52.982;6.658;2023-05-10T02:42:25;12.90;99.90
58865;DHT22;45702;52.982;6.658;2023-05-10T02:44:54;12.90;99.90
58865;DHT22;45702;52.982;6.658;2023-05-10T02:47:21;13.00;99.90
58865;DHT22;45702;52.982;6.658;2023-05-10T02:49:47;12.90;99.90
58865;DHT22;45702;52.982;6.658;2023-05-10T02:52:16;12.90;99.90
58865;DHT22;45702;52.982;6.658;2023-05-10T02:54:46;12.90;99.90
58865;DHT22;45702;52.982;6.658;2023-05-10T02:57:31;12.90;99.90
58865;DHT22;45702;52.982;6.658;2023-05-10T02:59:57;12.90;99.90
58865;DHT22;45702;52.982;6.658;2023-05-10T03:02:23;12.90;99.90
58865;DHT22;45702;52.982;6.658;2023-05-10T03:04:49;12.90;99.90
58865;DHT22;45702;52.982;6.658;2023-05-10T03:07:15;13.00;99.90
58865;DHT22;45702;52.982;6.658;2023-05-10T03:09:42;13.00;99.90
58865;DHT22;45702;52.982;6.658;2023-05-10T03:15:22;12.90;99.90
58865;DHT22;45702;52.982;6.658;2023-05-10T03:17:46;12.90;99.90
58865;DHT22;45702;52.982;6.658;2023-05-10T03:20:29;12.90;99.90
58865;DHT22;45702;52.982;6.658;2023-05-10T03:23:04;12.90;99.90
58865;DHT22;45702;52.982;6.658;2023-05-10T03:25:32;12.90;99.90
58865;DHT22;45702;52.982;6.658;2023-05-10T03:28:01;12.90;99.90
58865;DHT22;45702;52.982;6.658;2023-05-10T03:30:27;12.90;99.90
58865;DHT22;45702;52.982;6.658;2023-05-10T03:32:53;12.80;99.90
58865;DHT22;45702;52.982;6.658;2023-05-10T03:35:19;12.80;99.90
58865;DHT22;45702;52.982;6.658;2023-05-10T03:37:45;12.80;99.90
58865;DHT22;45702;52.982;6.658;2023-05-10T03:40:11;12.90;99.90
58865;DHT22;45702;52.982;6.658;2023-05-10T03:42:37;12.80;99.90
58865;DHT22;45702;52.982;6.658;2023-05-10T03:45:03;12.80;99.90
58865;DHT22;45702;52.982;6.658;2023-05-10T03:47:29;12.80;99.90
58865;DHT22;45702;52.982;6.658;2023-05-10T03:49:55;12.90;99.90
58865;DHT22;45702;52.982;6.658;2023-05-10T03:52:21;12.90;99.90
58865;DHT22;45702;52.982;6.658;2023-05-10T03:54:46;12.80;99.90
58865;DHT22;45702;52.982;6.658;2023-05-10T03:57:12;12.80;99.90
58865;DHT22;45702;52.982;6.658;2023-05-10T03:59:37;12.80;99.90
58865;DHT22;45702;52.982;6.658;2023-05-10T04:02:03;12.80;99.90
58865;DHT22;45702;52.982;6.658;2023-05-10T04:04:29;12.80;99.90
58865;DHT22;45702;52.982;6.658;2023-05-10T04:06:55;12.80;99.90
58865;DHT22;45702;52.982;6.658;2023-05-10T04:09:20;12.80;99.90
58865;DHT22;45702;52.982;6.658;2023-05-10T04:11:46;12.80;99.90
58865;DHT22;45702;52.982;6.658;2023-05-10T04:14:11;12.80;99.90
58865;DHT22;45702;52.982;6.658;2023-05-10T04:16:37;12.80;99.90
58865;DHT22;45702;52.982;6.658;2023-05-10T04:19:03;12.80;99.90
58865;DHT22;45702;52.982;6.658;2023-05-10T04:21:29;12.80;99.90
58865;DHT22;45702;52.982;6.658;2023-05-10T04:23:54;12.80;99.90
58865;DHT22;45702;52.982;6.658;2023-05-10T04:26:20;12.80;99.90
58865;DHT22;45702;52.982;6.658;2023-05-10T04:28:47;12.80;99.90
58865;DHT22;45702;52.982;6.658;2023-05-10T04:31:13;12.80;99.90
58865;DHT22;45702;52.982;6.658;2023-05-10T04:33:38;12.80;99.90
58865;DHT22;45702;52.982;6.658;2023-05-10T04:36:04;12.80;99.90
58865;DHT22;45702;52.982;6.658;2023-05-10T04:38:30;12.80;99.90
58865;DHT22;45702;52.982;6.658;2023-05-10T04:41:09;12.80;99.90
58865;DHT22;45702;52.982;6.658;2023-05-10T04:43:36;12.80;99.90
58865;DHT22;45702;52.982;6.658;2023-05-10T04:46:02;12.80;99.90
58865;DHT22;45702;52.982;6.658;2023-05-10T04:48:29;12.80;99.90
58865;DHT22;45702;52.982;6.658;2023-05-10T04:50:54;12.80;99.90
58865;DHT22;45702;52.982;6.658;2023-05-10T04:53:26;12.80;99.90
58865;DHT22;45702;52.982;6.658;2023-05-10T04:55:58;12.70;99.90
58865;DHT22;45702;52.982;6.658;2023-05-10T04:58:24;12.80;99.90
58865;DHT22;45702;52.982;6.658;2023-05-10T05:00:49;12.80;99.90
58865;DHT22;45702;52.982;6.658;2023-05-10T05:03:16;12.80;99.90
58865;DHT22;45702;52.982;6.658;2023-05-10T05:05:41;12.80;99.90
58865;DHT22;45702;52.982;6.658;2023-05-10T05:08:07;12.80;99.90
58865;DHT22;45702;52.982;6.658;2023-05-10T05:10:33;12.80;99.90
58865;DHT22;45702;52.982;6.658;2023-05-10T05:12:58;12.80;99.90
58865;DHT22;45702;52.982;6.658;2023-05-10T05:15:24;12.80;99.90
58865;DHT22;45702;52.982;6.658;2023-05-10T05:17:50;12.80;99.90
58865;DHT22;45702;52.982;6.658;2023-05-10T05:20:15;12.80;99.90
58865;DHT22;45702;52.982;6.658;2023-05-10T05:22:41;12.80;99.90
58865;DHT22;45702;52.982;6.658;2023-05-10T05:25:07;12.80;99.90
58865;DHT22;45702;52.982;6.658;2023-05-10T05:27:33;12.80;99.90
58865;DHT22;45702;52.982;6.658;2023-05-10T05:29:58;12.80;99.90
58865;DHT22;45702;52.982;6.658;2023-05-10T05:32:25;12.80;99.90
58865;DHT22;45702;52.982;6.658;2023-05-10T05:34:51;12.70;99.90
58865;DHT22;45702;52.982;6.658;2023-05-10T05:37:19;12.70;99.90
58865;DHT22;45702;52.982;6.658;2023-05-10T05:39:45;12.70;99.90
58865;DHT22;45702;52.982;6.658;2023-05-10T05:42:11;12.70;99.90
58865;DHT22;45702;52.982;6.658;2023-05-10T05:44:38;12.80;99.90
58865;DHT22;45702;52.982;6.658;2023-05-10T05:47:04;12.70;99.90
58865;DHT22;45702;52.982;6.658;2023-05-10T05:49:30;12.70;99.90
58865;DHT22;45702;52.982;6.658;2023-05-10T05:52:03;12.70;99.90
58865;DHT22;45702;52.982;6.658;2023-05-10T05:54:30;12.70;99.90
58865;DHT22;45702;52.982;6.658;2023-05-10T05:57:00;12.70;99.90
58865;DHT22;45702;52.982;6.658;2023-05-10T05:59:26;12.70;99.90
58865;DHT22;45702;52.982;6.658;2023-05-10T06:01:51;12.70;99.90
58865;DHT22;45702;52.982;6.658;2023-05-10T06:04:18;12.70;99.90
58865;DHT22;45702;52.982;6.658;2023-05-10T06:06:43;12.70;99.90
58865;DHT22;45702;52.982;6.658;2023-05-10T06:09:09;12.70;99.90
58865;DHT22;45702;52.982;6.658;2023-05-10T06:11:35;12.70;99.90
58865;DHT22;45702;52.982;6.658;2023-05-10T06:14:01;12.70;99.90
58865;DHT22;45702;52.982;6.658;2023-05-10T06:16:29;12.70;99.90
58865;DHT22;45702;52.982;6.658;2023-05-10T06:18:54;12.70;99.90
58865;DHT22;45702;52.982;6.658;2023-05-10T06:21:20;12.80;99.90
58865;DHT22;45702;52.982;6.658;2023-05-10T06:23:46;12.80;99.90
58865;DHT22;45702;52.982;6.658;2023-05-10T06:26:12;12.80;99.90
58865;DHT22;45702;52.982;6.658;2023-05-10T06:28:39;12.70;99.90
58865;DHT22;45702;52.982;6.658;2023-05-10T06:31:05;12.80;99.90
58865;DHT22;45702;52.982;6.658;2023-05-10T06:33:31;12.80;99.90
58865;DHT22;45702;52.982;6.658;2023-05-10T06:35:57;12.70;99.90
58865;DHT22;45702;52.982;6.658;2023-05-10T06:38:23;12.70;99.90
58865;DHT22;45702;52.982;6.658;2023-05-10T06:40:49;12.80;99.90
58865;DHT22;45702;52.982;6.658;2023-05-10T06:43:14;12.80;99.90
58865;DHT22;45702;52.982;6.658;2023-05-10T06:45:40;12.80;99.90
58865;DHT22;45702;52.982;6.658;2023-05-10T06:48:06;12.80;99.90
58865;DHT22;45702;52.982;6.658;2023-05-10T06:50:32;12.80;99.90
58865;DHT22;45702;52.982;6.658;2023-05-10T06:52:59;12.80;99.90
58865;DHT22;45702;52.982;6.658;2023-05-10T06:55:24;12.70;99.90
58865;DHT22;45702;52.982;6.658;2023-05-10T06:57:50;12.70;99.90
58865;DHT22;45702;52.982;6.658;2023-05-10T07:00:17;12.80;99.90
58865;DHT22;45702;52.982;6.658;2023-05-10T07:02:43;12.80;99.90
58865;DHT22;45702;52.982;6.658;2023-05-10T07:05:09;12.80;99.90
58865;DHT22;45702;52.982;6.658;2023-05-10T07:07:34;12.80;99.90
58865;DHT22;45702;52.982;6.658;2023-05-10T07:10:00;12.80;99.90
58865;DHT22;45702;52.982;6.658;2023-05-10T07:12:26;12.80;99.90
58865;DHT22;45702;52.982;6.658;2023-05-10T07:14:52;12.80;99.90
58865;DHT22;45702;52.982;6.658;2023-05-10T07:17:17;12.80;99.90
58865;DHT22;45702;52.982;6.658;2023-05-10T07:19:43;12.80;99.90
58865;DHT22;45702;52.982;6.658;2023-05-10T07:22:09;12.80;99.90
58865;DHT22;45702;52.982;6.658;2023-05-10T07:24:35;12.80;99.90
58865;DHT22;45702;52.982;6.658;2023-05-10T07:27:00;12.80;99.90
58865;DHT22;45702;52.982;6.658;2023-05-10T07:29:26;12.80;99.90
58865;DHT22;45702;52.982;6.658;2023-05-10T07:31:52;12.80;99.90
58865;DHT22;45702;52.982;6.658;2023-05-10T07:34:18;12.80;99.90
58865;DHT22;45702;52.982;6.658;2023-05-10T07:36:44;12.80;99.90
58865;DHT22;45702;52.982;6.658;2023-05-10T07:39:09;12.90;99.90
58865;DHT22;45702;52.982;6.658;2023-05-10T07:41:36;12.90;99.90
58865;DHT22;45702;52.982;6.658;2023-05-10T07:44:03;13.00;99.90
58865;DHT22;45702;52.982;6.658;2023-05-10T07:46:29;12.90;99.90
58865;DHT22;45702;52.982;6.658;2023-05-10T07:48:55;13.00;99.90
58865;DHT22;45702;52.982;6.658;2023-05-10T07:51:21;13.00;99.90
58865;DHT22;45702;52.982;6.658;2023-05-10T07:53:47;13.00;99.90
58865;DHT22;45702;52.982;6.658;2023-05-10T07:56:30;13.10;99.90
58865;DHT22;45702;52.982;6.658;2023-05-10T07:59:01;13.10;99.90
58865;DHT22;45702;52.982;6.658;2023-05-10T08:01:30;13.10;99.90
58865;DHT22;45702;52.982;6.658;2023-05-10T08:03:57;13.10;99.90
58865;DHT22;45702;52.982;6.658;2023-05-10T08:06:23;13.20;99.90
58865;DHT22;45702;52.982;6.658;2023-05-10T08:08:53;13.20;99.90
58865;DHT22;45702;52.982;6.658;2023-05-10T08:11:37;13.30;99.90
58865;DHT22;45702;52.982;6.658;2023-05-10T08:14:03;13.30;99.90
58865;DHT22;45702;52.982;6.658;2023-05-10T08:16:38;13.30;99.90
58865;DHT22;45702;52.982;6.658;2023-05-10T08:19:04;13.40;99.90
58865;DHT22;45702;52.982;6.658;2023-05-10T08:21:29;13.40;99.90
58865;DHT22;45702;52.982;6.658;2023-05-10T08:23:56;13.50;99.90
58865;DHT22;45702;52.982;6.658;2023-05-10T08:26:23;13.50;99.90
58865;DHT22;45702;52.982;6.658;2023-05-10T08:28:48;13.50;99.90
58865;DHT22;45702;52.982;6.658;2023-05-10T08:31:15;13.50;99.90
58865;DHT22;45702;52.982;6.658;2023-05-10T08:33:41;13.40;99.90
58865;DHT22;45702;52.982;6.658;2023-05-10T08:36:06;13.40;99.90
58865;DHT22;45702;52.982;6.658;2023-05-10T08:38:32;13.40;99.90
58865;DHT22;45702;52.982;6.658;2023-05-10T08:40:58;13.40;99.90
58865;DHT22;45702;52.982;6.658;2023-05-10T08:43:29;13.40;99.90
58865;DHT22;45702;52.982;6.658;2023-05-10T08:45:56;13.40;99.90
58865;DHT22;45702;52.982;6.658;2023-05-10T08:48:23;13.40;99.90
58865;DHT22;45702;52.982;6.658;2023-05-10T08:50:53;13.40;99.90
58865;DHT22;45702;52.982;6.658;2023-05-10T08:53:20;13.40;99.90
58865;DHT22;45702;52.982;6.658;2023-05-10T08:55:48;13.40;99.90
58865;DHT22;45702;52.982;6.658;2023-05-10T08:58:15;13.30;99.90
58865;DHT22;45702;52.982;6.658;2023-05-10T09:00:41;13.30;99.90
58865;DHT22;45702;52.982;6.658;2023-05-10T09:03:06;13.20;99.90
58865;DHT22;45702;52.982;6.658;2023-05-10T09:05:32;13.20;99.90
58865;DHT22;45702;52.982;6.658;2023-05-10T09:07:58;13.20;99.90
58865;DHT22;45702;52.982;6.658;2023-05-10T09:10:26;13.30;99.90
58865;DHT22;45702;52.982;6.658;2023-05-10T09:12:53;13.40;99.90
58865;DHT22;45702;52.982;6.658;2023-05-10T09:15:21;13.50;99.90
58865;DHT22;45702;52.982;6.658;2023-05-10T09:17:47;13.50;99.90
58865;DHT22;45702;52.982;6.658;2023-05-10T09:20:14;13.60;99.90
58865;DHT22;45702;52.982;6.658;2023-05-10T09:22:40;13.70;99.90
58865;DHT22;45702;52.982;6.658;2023-05-10T09:25:16;13.70;99.90
58865;DHT22;45702;52.982;6.658;2023-05-10T09:27:45;13.70;99.90
58865;DHT22;45702;52.982;6.658;2023-05-10T09:30:15;13.70;99.90
58865;DHT22;45702;52.982;6.658;2023-05-10T09:32:42;13.60;99.90
58865;DHT22;45702;52.982;6.658;2023-05-10T09:35:15;13.60;99.90
58865;DHT22;45702;52.982;6.658;2023-05-10T09:37:45;13.60;99.90
58865;DHT22;45702;52.982;6.658;2023-05-10T09:40:13;13.60;99.90
58865;DHT22;45702;52.982;6.658;2023-05-10T09:42:41;13.60;99.90
58865;DHT22;45702;52.982;6.658;2023-05-10T09:45:07;13.60;99.90
58865;DHT22;45702;52.982;6.658;2023-05-10T09:47:36;13.70;99.90
58865;DHT22;45702;52.982;6.658;2023-05-10T09:50:03;13.70;99.90
58865;DHT22;45702;52.982;6.658;2023-05-10T09:52:31;13.70;99.90
58865;DHT22;45702;52.982;6.658;2023-05-10T09:55:10;13.70;99.90
58865;DHT22;45702;52.982;6.658;2023-05-10T09:57:36;13.80;99.90
58865;DHT22;45702;52.982;6.658;2023-05-10T10:00:02;13.80;99.90
58865;DHT22;45702;52.982;6.658;2023-05-10T10:02:32;13.80;99.90
58865;DHT22;45702;52.982;6.658;2023-05-10T10:05:02;13.80;99.90
58865;DHT22;45702;52.982;6.658;2023-05-10T10:07:31;14.00;99.90
58865;DHT22;45702;52.982;6.658;2023-05-10T10:09:58;14.00;99.90
58865;DHT22;45702;52.982;6.658;2023-05-10T10:12:25;14.00;99.90
58865;DHT22;45702;52.982;6.658;2023-05-10T10:14:51;14.00;99.90
58865;DHT22;45702;52.982;6.658;2023-05-10T10:17:17;14.00;99.90
58865;DHT22;45702;52.982;6.658;2023-05-10T10:19:43;14.00;99.90
58865;DHT22;45702;52.982;6.658;2023-05-10T10:22:10;14.10;99.90
58865;DHT22;45702;52.982;6.658;2023-05-10T10:24:38;14.10;99.90
58865;DHT22;45702;52.982;6.658;2023-05-10T10:33:06;14.10;99.90
58865;DHT22;45702;52.982;6.658;2023-05-10T10:35:36;14.10;99.90
58865;DHT22;45702;52.982;6.658;2023-05-10T10:38:02;14.10;99.90
58865;DHT22;45702;52.982;6.658;2023-05-10T10:42:55;14.10;99.90
58865;DHT22;45702;52.982;6.658;2023-05-10T10:45:21;14.10;99.90
58865;DHT22;45702;52.982;6.658;2023-05-10T10:47:47;14.20;99.90
58865;DHT22;45702;52.982;6.658;2023-05-10T10:50:13;14.20;99.90
58865;DHT22;45702;52.982;6.658;2023-05-10T10:52:42;14.20;99.90
58865;DHT22;45702;52.982;6.658;2023-05-10T10:55:17;14.20;99.90
58865;DHT22;45702;52.982;6.658;2023-05-10T10:57:51;14.30;99.90
58865;DHT22;45702;52.982;6.658;2023-05-10T11:00:24;14.30;99.90
58865;DHT22;45702;52.982;6.658;2023-05-10T11:02:56;14.40;99.90
58865;DHT22;45702;52.982;6.658;2023-05-10T11:05:43;14.40;99.90
58865;DHT22;45702;52.982;6.658;2023-05-10T11:08:44;14.50;99.90
58865;DHT22;45702;52.982;6.658;2023-05-10T11:11:14;14.50;99.90
58865;DHT22;45702;52.982;6.658;2023-05-10T11:13:42;14.50;99.90
58865;DHT22;45702;52.982;6.658;2023-05-10T11:18:40;14.60;99.90
58865;DHT22;45702;52.982;6.658;2023-05-10T11:21:08;14.60;99.90
58865;DHT22;45702;52.982;6.658;2023-05-10T11:23:50;14.60;99.90
58865;DHT22;45702;52.982;6.658;2023-05-10T11:26:16;14.70;99.90
58865;DHT22;45702;52.982;6.658;2023-05-10T11:28:46;14.60;99.90
58865;DHT22;45702;52.982;6.658;2023-05-10T11:31:15;14.70;99.90
58865;DHT22;45702;52.982;6.658;2023-05-10T11:33:49;14.80;99.90
58865;DHT22;45702;52.982;6.658;2023-05-10T11:36:17;14.80;99.90
58865;DHT22;45702;52.982;6.658;2023-05-10T11:38:43;14.90;99.90
58865;DHT22;45702;52.982;6.658;2023-05-10T11:41:10;15.00;99.90
58865;DHT22;45702;52.982;6.658;2023-05-10T11:43:40;15.10;99.90
58865;DHT22;45702;52.982;6.658;2023-05-10T11:46:10;15.10;99.90
58865;DHT22;45702;52.982;6.658;2023-05-10T11:48:38;15.10;99.90
58865;DHT22;45702;52.982;6.658;2023-05-10T11:51:04;15.10;99.90
58865;DHT22;45702;52.982;6.658;2023-05-10T11:53:32;15.10;99.90
58865;DHT22;45702;52.982;6.658;2023-05-10T11:56:05;15.00;99.90
58865;DHT22;45702;52.982;6.658;2023-05-10T11:58:32;14.90;99.90
58865;DHT22;45702;52.982;6.658;2023-05-10T12:00:59;14.90;99.90
58865;DHT22;45702;52.982;6.658;2023-05-10T12:03:28;14.70;99.90
58865;DHT22;45702;52.982;6.658;2023-05-10T12:05:55;14.60;99.90
58865;DHT22;45702;52.982;6.658;2023-05-10T12:08:25;14.60;99.90
58865;DHT22;45702;52.982;6.658;2023-05-10T12:10:52;14.60;99.90
58865;DHT22;45702;52.982;6.658;2023-05-10T12:13:19;14.60;99.90
58865;DHT22;45702;52.982;6.658;2023-05-10T12:15:46;14.60;99.90
58865;DHT22;45702;52.982;6.658;2023-05-10T12:18:13;14.50;99.90
58865;DHT22;45702;52.982;6.658;2023-05-10T12:20:39;14.50;99.90
58865;DHT22;45702;52.982;6.658;2023-05-10T12:23:08;14.50;99.90
58865;DHT22;45702;52.982;6.658;2023-05-10T12:25:35;14.60;99.90
58865;DHT22;45702;52.982;6.658;2023-05-10T12:28:04;14.60;99.90
58865;DHT22;45702;52.982;6.658;2023-05-10T12:30:31;14.70;99.90
58865;DHT22;45702;52.982;6.658;2023-05-10T12:33:11;14.60;99.90
58865;DHT22;45702;52.982;6.658;2023-05-10T12:36:03;14.70;99.90
58865;DHT22;45702;52.982;6.658;2023-05-10T12:38:36;14.70;99.90
58865;DHT22;45702;52.982;6.658;2023-05-10T12:41:14;14.70;99.90
58865;DHT22;45702;52.982;6.658;2023-05-10T12:43:40;14.80;99.90
58865;DHT22;45702;52.982;6.658;2023-05-10T12:46:13;14.80;99.90
58865;DHT22;45702;52.982;6.658;2023-05-10T12:48:41;14.90;99.90
58865;DHT22;45702;52.982;6.658;2023-05-10T12:51:07;15.00;99.90
58865;DHT22;45702;52.982;6.658;2023-05-10T12:53:42;15.00;99.90
58865;DHT22;45702;52.982;6.658;2023-05-10T12:56:10;15.10;99.90
58865;DHT22;45702;52.982;6.658;2023-05-10T12:58:36;15.10;99.90
58865;DHT22;45702;52.982;6.658;2023-05-10T13:01:02;15.10;99.90
58865;DHT22;45702;52.982;6.658;2023-05-10T13:03:28;15.20;99.90
58865;DHT22;45702;52.982;6.658;2023-05-10T13:05:53;15.20;99.90
58865;DHT22;45702;52.982;6.658;2023-05-10T13:08:20;15.20;99.90
58865;DHT22;45702;52.982;6.658;2023-05-10T13:10:45;15.30;99.90
58865;DHT22;45702;52.982;6.658;2023-05-10T13:13:11;15.20;99.90
58865;DHT22;45702;52.982;6.658;2023-05-10T13:15:37;15.20;99.90
58865;DHT22;45702;52.982;6.658;2023-05-10T13:18:02;15.20;99.90
58865;DHT22;45702;52.982;6.658;2023-05-10T13:20:29;15.20;99.90
58865;DHT22;45702;52.982;6.658;2023-05-10T13:22:55;15.20;99.90
58865;DHT22;45702;52.982;6.658;2023-05-10T13:25:21;15.10;99.90
58865;DHT22;45702;52.982;6.658;2023-05-10T13:27:46;15.10;99.90
58865;DHT22;45702;52.982;6.658;2023-05-10T13:30:12;15.00;99.90
58865;DHT22;45702;52.982;6.658;2023-05-10T13:32:38;14.90;99.90
58865;DHT22;45702;52.982;6.658;2023-05-10T13:35:04;14.90;99.90
58865;DHT22;45702;52.982;6.658;2023-05-10T13:37:31;14.90;99.90
58865;DHT22;45702;52.982;6.658;2023-05-10T13:39:57;14.90;99.90
58865;DHT22;45702;52.982;6.658;2023-05-10T13:42:23;14.90;99.90
58865;DHT22;45702;52.982;6.658;2023-05-10T13:44:49;14.90;99.90
58865;DHT22;45702;52.982;6.658;2023-05-10T13:47:15;14.90;99.90
58865;DHT22;45702;52.982;6.658;2023-05-10T13:49:41;15.00;99.90
58865;DHT22;45702;52.982;6.658;2023-05-10T13:52:07;15.00;99.90
58865;DHT22;45702;52.982;6.658;2023-05-10T13:54:35;15.20;99.90
58865;DHT22;45702;52.982;6.658;2023-05-10T13:57:02;15.20;99.90
58865;DHT22;45702;52.982;6.658;2023-05-10T13:59:28;15.30;99.90
58865;DHT22;45702;52.982;6.658;2023-05-10T14:01:54;15.40;99.90
58865;DHT22;45702;52.982;6.658;2023-05-10T14:04:20;15.40;99.90
58865;DHT22;45702;52.982;6.658;2023-05-10T14:06:46;15.50;99.90
58865;DHT22;45702;52.982;6.658;2023-05-10T14:09:12;15.50;99.90
58865;DHT22;45702;52.982;6.658;2023-05-10T14:11:38;15.60;99.90
58865;DHT22;45702;52.982;6.658;2023-05-10T14:14:07;15.70;99.90
58865;DHT22;45702;52.982;6.658;2023-05-10T14:16:33;15.80;99.90
58865;DHT22;45702;52.982;6.658;2023-05-10T14:18:59;15.80;99.90
58865;DHT22;45702;52.982;6.658;2023-05-10T14:21:24;15.90;99.90
58865;DHT22;45702;52.982;6.658;2023-05-10T14:23:50;15.90;99.90
58865;DHT22;45702;52.982;6.658;2023-05-10T14:26:17;15.80;99.90
58865;DHT22;45702;52.982;6.658;2023-05-10T14:28:43;15.80;99.90
58865;DHT22;45702;52.982;6.658;2023-05-10T14:31:08;15.80;99.90
58865;DHT22;45702;52.982;6.658;2023-05-10T14:33:34;15.80;99.90
58865;DHT22;45702;52.982;6.658;2023-05-10T14:36:00;15.80;99.90
58865;DHT22;45702;52.982;6.658;2023-05-10T14:38:25;15.80;99.90
58865;DHT22;45702;52.982;6.658;2023-05-10T14:40:51;15.70;99.90
58865;DHT22;45702;52.982;6.658;2023-05-10T14:43:17;15.70;99.90
58865;DHT22;45702;52.982;6.658;2023-05-10T14:45:43;15.70;99.90
58865;DHT22;45702;52.982;6.658;2023-05-10T14:48:10;15.60;99.90
58865;DHT22;45702;52.982;6.658;2023-05-10T14:50:41;15.60;99.90
58865;DHT22;45702;52.982;6.658;2023-05-10T14:53:06;15.50;99.90
58865;DHT22;45702;52.982;6.658;2023-05-10T14:55:32;15.50;99.90
58865;DHT22;45702;52.982;6.658;2023-05-10T14:57:58;15.50;99.90
58865;DHT22;45702;52.982;6.658;2023-05-10T15:00:24;15.50;99.90
58865;DHT22;45702;52.982;6.658;2023-05-10T15:02:49;15.40;99.90
58865;DHT22;45702;52.982;6.658;2023-05-10T15:05:15;15.40;99.90
58865;DHT22;45702;52.982;6.658;2023-05-10T15:07:41;15.30;99.90
58865;DHT22;45702;52.982;6.658;2023-05-10T15:10:09;15.30;99.90
58865;DHT22;45702;52.982;6.658;2023-05-10T15:12:35;15.30;99.90
58865;DHT22;45702;52.982;6.658;2023-05-10T15:15:00;15.30;99.90
58865;DHT22;45702;52.982;6.658;2023-05-10T15:17:26;15.30;99.90
58865;DHT22;45702;52.982;6.658;2023-05-10T15:19:52;15.30;99.90
58865;DHT22;45702;52.982;6.658;2023-05-10T15:22:17;15.40;99.90
58865;DHT22;45702;52.982;6.658;2023-05-10T15:24:44;15.30;99.90
58865;DHT22;45702;52.982;6.658;2023-05-10T15:27:09;15.40;99.90
58865;DHT22;45702;52.982;6.658;2023-05-10T15:29:35;15.40;99.90
58865;DHT22;45702;52.982;6.658;2023-05-10T15:32:01;15.40;99.90
58865;DHT22;45702;52.982;6.658;2023-05-10T15:34:28;15.40;99.90
58865;DHT22;45702;52.982;6.658;2023-05-10T15:36:53;15.40;99.90
58865;DHT22;45702;52.982;6.658;2023-05-10T15:39:19;15.40;99.90
58865;DHT22;45702;52.982;6.658;2023-05-10T15:41:45;15.50;99.90
58865;DHT22;45702;52.982;6.658;2023-05-10T15:44:11;15.50;99.90
58865;DHT22;45702;52.982;6.658;2023-05-10T15:46:37;15.50;99.90
58865;DHT22;45702;52.982;6.658;2023-05-10T15:49:03;15.60;99.90
58865;DHT22;45702;52.982;6.658;2023-05-10T15:51:29;15.60;99.90
58865;DHT22;45702;52.982;6.658;2023-05-10T15:53:54;15.60;99.90
58865;DHT22;45702;52.982;6.658;2023-05-10T15:56:21;15.60;99.90
58865;DHT22;45702;52.982;6.658;2023-05-10T15:58:47;15.70;99.90
58865;DHT22;45702;52.982;6.658;2023-05-10T16:01:13;15.80;99.90
58865;DHT22;45702;52.982;6.658;2023-05-10T16:03:39;15.80;99.90
58865;DHT22;45702;52.982;6.658;2023-05-10T16:06:04;15.80;99.90